sensor_id;sensor_type;location;lat;lon;timestamp;P1;durP1;ratioP1;P2;durP2;ratioP2
568;SDS011;269;48.884;9.192;2023-05-23T00:00:04;30.97;;;27.83;;
568;SDS011;269;48.884;9.192;2023-05-23T00:02:32;29.63;;;26.43;;
568;SDS011;269;48.884;9.192;2023-05-23T00:04:59;30.63;;;27.40;;
568;SDS011;269;48.884;9.192;2023-05-23T00:07:28;32.23;;;29.10;;
568;SDS011;269;48.884;9.192;2023-05-23T00:09:56;33.13;;;29.70;;
568;SDS011;269;48.884;9.192;2023-05-23T00:12:24;33.40;;;29.83;;
568;SDS011;269;48.884;9.192;2023-05-23T00:14:51;36.37;;;32.67;;
568;SDS011;269;48.884;9.192;2023-05-23T00:17:20;40.43;;;35.40;;
568;SDS011;269;48.884;9.192;2023-05-23T00:19:49;37.97;;;33.03;;
568;SDS011;269;48.884;9.192;2023-05-23T00:22:17;38.43;;;33.93;;
568;SDS011;269;48.884;9.192;2023-05-23T00:24:44;40.37;;;34.97;;
568;SDS011;269;48.884;9.192;2023-05-23T00:27:11;40.30;;;36.10;;
568;SDS011;269;48.884;9.192;2023-05-23T00:29:38;42.20;;;37.00;;
568;SDS011;269;48.884;9.192;2023-05-23T00:32:05;43.77;;;38.90;;
568;SDS011;269;48.884;9.192;2023-05-23T00:34:33;46.33;;;40.00;;
568;SDS011;269;48.884;9.192;2023-05-23T00:37:00;41.53;;;36.53;;
568;SDS011;269;48.884;9.192;2023-05-23T00:39:28;46.10;;;40.10;;
568;SDS011;269;48.884;9.192;2023-05-23T00:41:54;45.20;;;38.90;;
568;SDS011;269;48.884;9.192;2023-05-23T00:44:22;44.77;;;37.13;;
568;SDS011;269;48.884;9.192;2023-05-23T00:46:50;42.23;;;36.77;;
568;SDS011;269;48.884;9.192;2023-05-23T00:49:20;44.67;;;39.73;;
568;SDS011;269;48.884;9.192;2023-05-23T00:51:49;51.10;;;41.13;;
568;SDS011;269;48.884;9.192;2023-05-23T00:54:17;46.93;;;39.93;;
568;SDS011;269;48.884;9.192;2023-05-23T00:56:48;49.03;;;41.33;;
568;SDS011;269;48.884;9.192;2023-05-23T00:59:15;50.03;;;42.80;;
568;SDS011;269;48.884;9.192;2023-05-23T01:01:45;50.53;;;42.67;;
568;SDS011;269;48.884;9.192;2023-05-23T01:04:13;53.10;;;44.73;;
568;SDS011;269;48.884;9.192;2023-05-23T01:06:42;54.13;;;44.30;;
568;SDS011;269;48.884;9.192;2023-05-23T01:09:12;52.60;;;43.87;;
568;SDS011;269;48.884;9.192;2023-05-23T01:11:41;50.33;;;42.93;;
568;SDS011;269;48.884;9.192;2023-05-23T01:14:14;49.10;;;42.23;;
568;SDS011;269;48.884;9.192;2023-05-23T01:16:47;51.67;;;43.30;;
568;SDS011;269;48.884;9.192;2023-05-23T01:19:38;50.27;;;43.80;;
568;SDS011;269;48.884;9.192;2023-05-23T01:22:20;49.97;;;42.17;;
568;SDS011;269;48.884;9.192;2023-05-23T01:24:56;56.80;;;44.10;;
568;SDS011;269;48.884;9.192;2023-05-23T01:27:41;48.17;;;42.60;;
568;SDS011;269;48.884;9.192;2023-05-23T01:30:13;53.30;;;46.87;;
568;SDS011;269;48.884;9.192;2023-05-23T01:32:44;52.80;;;45.77;;
568;SDS011;269;48.884;9.192;2023-05-23T01:35:14;49.10;;;43.70;;
568;SDS011;269;48.884;9.192;2023-05-23T01:37:47;50.40;;;43.57;;
568;SDS011;269;48.884;9.192;2023-05-23T01:40:14;56.40;;;47.17;;
568;SDS011;269;48.884;9.192;2023-05-23T01:42:42;57.73;;;48.40;;
568;SDS011;269;48.884;9.192;2023-05-23T01:45:09;58.50;;;48.77;;
568;SDS011;269;48.884;9.192;2023-05-23T01:47:38;57.40;;;47.17;;
568;SDS011;269;48.884;9.192;2023-05-23T01:50:06;58.93;;;49.90;;
568;SDS011;269;48.884;9.192;2023-05-23T01:52:34;57.80;;;49.87;;
568;SDS011;269;48.884;9.192;2023-05-23T01:55:02;58.00;;;48.87;;
568;SDS011;269;48.884;9.192;2023-05-23T01:57:34;60.77;;;51.27;;
568;SDS011;269;48.884;9.192;2023-05-23T02:00:03;61.57;;;51.73;;
568;SDS011;269;48.884;9.192;2023-05-23T02:02:31;58.60;;;52.10;;
568;SDS011;269;48.884;9.192;2023-05-23T02:04:58;62.57;;;51.60;;
568;SDS011;269;48.884;9.192;2023-05-23T02:07:26;63.47;;;51.17;;
568;SDS011;269;48.884;9.192;2023-05-23T02:09:53;62.03;;;52.37;;
568;SDS011;269;48.884;9.192;2023-05-23T02:12:20;61.70;;;51.33;;
568;SDS011;269;48.884;9.192;2023-05-23T02:14:48;60.17;;;51.70;;
568;SDS011;269;48.884;9.192;2023-05-23T02:17:17;55.83;;;49.47;;
568;SDS011;269;48.884;9.192;2023-05-23T02:19:46;59.07;;;50.77;;
568;SDS011;269;48.884;9.192;2023-05-23T02:22:13;61.90;;;52.90;;
568;SDS011;269;48.884;9.192;2023-05-23T02:24:40;64.03;;;52.30;;
568;SDS011;269;48.884;9.192;2023-05-23T02:27:07;59.87;;;50.57;;
568;SDS011;269;48.884;9.192;2023-05-23T02:29:35;60.50;;;51.80;;
568;SDS011;269;48.884;9.192;2023-05-23T02:32:01;59.57;;;52.20;;
568;SDS011;269;48.884;9.192;2023-05-23T02:34:30;62.87;;;54.50;;
568;SDS011;269;48.884;9.192;2023-05-23T02:36:57;59.80;;;51.40;;
568;SDS011;269;48.884;9.192;2023-05-23T02:39:24;60.10;;;53.57;;
568;SDS011;269;48.884;9.192;2023-05-23T02:41:52;57.67;;;51.33;;
568;SDS011;269;48.884;9.192;2023-05-23T02:44:19;59.43;;;53.00;;
568;SDS011;269;48.884;9.192;2023-05-23T02:46:46;57.43;;;50.57;;
568;SDS011;269;48.884;9.192;2023-05-23T02:49:13;60.97;;;52.00;;
568;SDS011;269;48.884;9.192;2023-05-23T02:51:41;61.13;;;53.27;;
568;SDS011;269;48.884;9.192;2023-05-23T02:54:08;57.40;;;51.30;;
568;SDS011;269;48.884;9.192;2023-05-23T02:56:35;60.87;;;54.27;;
568;SDS011;269;48.884;9.192;2023-05-23T02:59:02;58.67;;;51.10;;
568;SDS011;269;48.884;9.192;2023-05-23T03:01:30;58.77;;;52.40;;
568;SDS011;269;48.884;9.192;2023-05-23T03:03:56;61.13;;;52.10;;
568;SDS011;269;48.884;9.192;2023-05-23T03:06:24;59.27;;;52.77;;
568;SDS011;269;48.884;9.192;2023-05-23T03:08:53;60.57;;;53.87;;
568;SDS011;269;48.884;9.192;2023-05-23T03:11:21;60.30;;;53.80;;
568;SDS011;269;48.884;9.192;2023-05-23T03:13:48;59.37;;;52.87;;
568;SDS011;269;48.884;9.192;2023-05-23T03:16:15;58.27;;;51.43;;
568;SDS011;269;48.884;9.192;2023-05-23T03:18:42;59.13;;;51.97;;
568;SDS011;269;48.884;9.192;2023-05-23T03:21:09;56.13;;;50.13;;
568;SDS011;269;48.884;9.192;2023-05-23T03:23:36;55.43;;;49.70;;
568;SDS011;269;48.884;9.192;2023-05-23T03:26:05;62.53;;;55.83;;
568;SDS011;269;48.884;9.192;2023-05-23T03:28:32;58.00;;;51.90;;
568;SDS011;269;48.884;9.192;2023-05-23T03:30:59;58.50;;;52.20;;
568;SDS011;269;48.884;9.192;2023-05-23T03:33:26;57.87;;;51.70;;
568;SDS011;269;48.884;9.192;2023-05-23T03:35:53;53.70;;;48.00;;
568;SDS011;269;48.884;9.192;2023-05-23T03:38:21;57.60;;;51.50;;
568;SDS011;269;48.884;9.192;2023-05-23T03:40:48;53.13;;;47.50;;
568;SDS011;269;48.884;9.192;2023-05-23T03:43:17;54.20;;;48.50;;
568;SDS011;269;48.884;9.192;2023-05-23T03:45:44;55.33;;;49.40;;
568;SDS011;269;48.884;9.192;2023-05-23T03:48:11;55.30;;;49.60;;
568;SDS011;269;48.884;9.192;2023-05-23T03:50:38;55.43;;;49.37;;
568;SDS011;269;48.884;9.192;2023-05-23T03:53:05;53.77;;;48.27;;
568;SDS011;269;48.884;9.192;2023-05-23T03:55:32;52.30;;;47.00;;
568;SDS011;269;48.884;9.192;2023-05-23T03:58:00;55.43;;;49.70;;
568;SDS011;269;48.884;9.192;2023-05-23T04:00:28;54.10;;;48.73;;
568;SDS011;269;48.884;9.192;2023-05-23T04:02:55;52.47;;;47.00;;
568;SDS011;269;48.884;9.192;2023-05-23T04:05:22;56.73;;;49.20;;
568;SDS011;269;48.884;9.192;2023-05-23T04:07:49;53.20;;;47.73;;
568;SDS011;269;48.884;9.192;2023-05-23T04:10:16;52.30;;;46.90;;
568;SDS011;269;48.884;9.192;2023-05-23T04:12:44;53.57;;;48.03;;
568;SDS011;269;48.884;9.192;2023-05-23T04:15:12;53.97;;;48.20;;
568;SDS011;269;48.884;9.192;2023-05-23T04:17:40;54.83;;;49.20;;
568;SDS011;269;48.884;9.192;2023-05-23T04:20:08;54.97;;;49.37;;
568;SDS011;269;48.884;9.192;2023-05-23T04:22:36;55.17;;;49.30;;
568;SDS011;269;48.884;9.192;2023-05-23T04:25:03;50.30;;;45.07;;
568;SDS011;269;48.884;9.192;2023-05-23T04:27:31;50.87;;;45.67;;
568;SDS011;269;48.884;9.192;2023-05-23T04:29:58;55.17;;;49.83;;
568;SDS011;269;48.884;9.192;2023-05-23T04:32:25;50.47;;;45.47;;
568;SDS011;269;48.884;9.192;2023-05-23T04:34:54;50.87;;;45.67;;
568;SDS011;269;48.884;9.192;2023-05-23T04:37:22;47.53;;;42.60;;
568;SDS011;269;48.884;9.192;2023-05-23T04:39:50;49.47;;;44.50;;
568;SDS011;269;48.884;9.192;2023-05-23T04:42:18;50.17;;;44.97;;
568;SDS011;269;48.884;9.192;2023-05-23T04:44:48;48.37;;;43.87;;
568;SDS011;269;48.884;9.192;2023-05-23T04:47:15;48.30;;;43.77;;
568;SDS011;269;48.884;9.192;2023-05-23T04:49:43;50.13;;;45.10;;
568;SDS011;269;48.884;9.192;2023-05-23T04:52:11;46.03;;;41.50;;
568;SDS011;269;48.884;9.192;2023-05-23T04:54:38;47.83;;;43.17;;
568;SDS011;269;48.884;9.192;2023-05-23T04:57:09;44.87;;;40.57;;
568;SDS011;269;48.884;9.192;2023-05-23T04:59:36;45.47;;;41.30;;
568;SDS011;269;48.884;9.192;2023-05-23T05:02:04;43.30;;;39.07;;
568;SDS011;269;48.884;9.192;2023-05-23T05:04:32;47.70;;;42.87;;
568;SDS011;269;48.884;9.192;2023-05-23T05:06:59;46.73;;;42.10;;
568;SDS011;269;48.884;9.192;2023-05-23T05:09:29;43.63;;;39.40;;
568;SDS011;269;48.884;9.192;2023-05-23T05:11:56;47.00;;;42.40;;
568;SDS011;269;48.884;9.192;2023-05-23T05:14:24;42.70;;;38.60;;
568;SDS011;269;48.884;9.192;2023-05-23T05:16:51;47.63;;;42.93;;
568;SDS011;269;48.884;9.192;2023-05-23T05:19:19;47.47;;;43.00;;
568;SDS011;269;48.884;9.192;2023-05-23T05:21:46;43.80;;;39.80;;
568;SDS011;269;48.884;9.192;2023-05-23T05:24:13;40.83;;;37.17;;
568;SDS011;269;48.884;9.192;2023-05-23T05:26:42;47.47;;;43.07;;
568;SDS011;269;48.884;9.192;2023-05-23T05:29:09;44.60;;;40.47;;
568;SDS011;269;48.884;9.192;2023-05-23T05:31:36;44.00;;;39.90;;
568;SDS011;269;48.884;9.192;2023-05-23T05:34:03;43.80;;;39.67;;
568;SDS011;269;48.884;9.192;2023-05-23T05:36:30;41.83;;;38.10;;
568;SDS011;269;48.884;9.192;2023-05-23T05:38:57;44.97;;;40.97;;
568;SDS011;269;48.884;9.192;2023-05-23T05:41:24;41.10;;;37.20;;
568;SDS011;269;48.884;9.192;2023-05-23T05:43:53;40.07;;;36.43;;
568;SDS011;269;48.884;9.192;2023-05-23T05:46:20;46.13;;;41.43;;
568;SDS011;269;48.884;9.192;2023-05-23T05:48:48;43.17;;;38.90;;
568;SDS011;269;48.884;9.192;2023-05-23T05:51:15;43.40;;;39.43;;
568;SDS011;269;48.884;9.192;2023-05-23T05:53:42;44.53;;;40.23;;
568;SDS011;269;48.884;9.192;2023-05-23T05:56:09;42.77;;;39.00;;
568;SDS011;269;48.884;9.192;2023-05-23T05:58:36;43.13;;;39.03;;
568;SDS011;269;48.884;9.192;2023-05-23T06:01:05;41.83;;;38.13;;
568;SDS011;269;48.884;9.192;2023-05-23T06:03:32;43.87;;;39.83;;
568;SDS011;269;48.884;9.192;2023-05-23T06:05:59;43.90;;;39.97;;
568;SDS011;269;48.884;9.192;2023-05-23T06:08:26;41.93;;;38.30;;
568;SDS011;269;48.884;9.192;2023-05-23T06:10:53;38.60;;;35.10;;
568;SDS011;269;48.884;9.192;2023-05-23T06:13:21;40.03;;;36.33;;
568;SDS011;269;48.884;9.192;2023-05-23T06:15:50;38.37;;;35.07;;
568;SDS011;269;48.884;9.192;2023-05-23T06:18:19;39.37;;;35.77;;
568;SDS011;269;48.884;9.192;2023-05-23T06:20:46;37.40;;;34.03;;
568;SDS011;269;48.884;9.192;2023-05-23T06:23:13;41.37;;;37.67;;
568;SDS011;269;48.884;9.192;2023-05-23T06:25:40;40.70;;;37.27;;
568;SDS011;269;48.884;9.192;2023-05-23T06:28:07;40.23;;;36.73;;
568;SDS011;269;48.884;9.192;2023-05-23T06:30:34;38.67;;;35.27;;
568;SDS011;269;48.884;9.192;2023-05-23T06:33:02;39.70;;;36.17;;
568;SDS011;269;48.884;9.192;2023-05-23T06:35:31;40.13;;;36.53;;
568;SDS011;269;48.884;9.192;2023-05-23T06:37:58;38.80;;;35.43;;
568;SDS011;269;48.884;9.192;2023-05-23T06:40:25;40.33;;;36.83;;
568;SDS011;269;48.884;9.192;2023-05-23T06:42:52;40.43;;;37.00;;
568;SDS011;269;48.884;9.192;2023-05-23T06:45:19;40.97;;;37.47;;
568;SDS011;269;48.884;9.192;2023-05-23T06:47:46;39.03;;;35.60;;
568;SDS011;269;48.884;9.192;2023-05-23T06:50:13;41.97;;;38.33;;
568;SDS011;269;48.884;9.192;2023-05-23T06:52:45;43.00;;;39.30;;
568;SDS011;269;48.884;9.192;2023-05-23T06:55:13;41.60;;;37.87;;
568;SDS011;269;48.884;9.192;2023-05-23T06:57:43;44.43;;;40.27;;
568;SDS011;269;48.884;9.192;2023-05-23T07:00:11;39.57;;;36.27;;
568;SDS011;269;48.884;9.192;2023-05-23T07:02:39;42.17;;;38.40;;
568;SDS011;269;48.884;9.192;2023-05-23T07:05:06;41.83;;;38.30;;
568;SDS011;269;48.884;9.192;2023-05-23T07:07:34;40.77;;;37.20;;
568;SDS011;269;48.884;9.192;2023-05-23T07:10:02;39.60;;;36.20;;
568;SDS011;269;48.884;9.192;2023-05-23T07:12:30;35.93;;;32.63;;
568;SDS011;269;48.884;9.192;2023-05-23T07:14:57;33.57;;;30.77;;
568;SDS011;269;48.884;9.192;2023-05-23T07:17:24;34.00;;;30.93;;
568;SDS011;269;48.884;9.192;2023-05-23T07:19:54;32.93;;;29.90;;
568;SDS011;269;48.884;9.192;2023-05-23T07:22:21;28.80;;;26.40;;
568;SDS011;269;48.884;9.192;2023-05-23T07:24:48;30.50;;;28.00;;
568;SDS011;269;48.884;9.192;2023-05-23T07:27:16;28.43;;;26.10;;
568;SDS011;269;48.884;9.192;2023-05-23T07:29:43;29.83;;;27.33;;
568;SDS011;269;48.884;9.192;2023-05-23T07:32:10;28.23;;;25.90;;
568;SDS011;269;48.884;9.192;2023-05-23T07:34:37;25.40;;;23.30;;
568;SDS011;269;48.884;9.192;2023-05-23T07:37:04;27.10;;;24.63;;
568;SDS011;269;48.884;9.192;2023-05-23T07:39:32;30.47;;;28.00;;
568;SDS011;269;48.884;9.192;2023-05-23T07:41:59;26.03;;;23.93;;
568;SDS011;269;48.884;9.192;2023-05-23T07:44:27;26.97;;;24.60;;
568;SDS011;269;48.884;9.192;2023-05-23T07:46:54;27.00;;;24.80;;
568;SDS011;269;48.884;9.192;2023-05-23T07:49:22;27.63;;;25.13;;
568;SDS011;269;48.884;9.192;2023-05-23T07:51:49;26.63;;;24.40;;
568;SDS011;269;48.884;9.192;2023-05-23T07:54:16;23.33;;;21.27;;
568;SDS011;269;48.884;9.192;2023-05-23T07:56:43;24.43;;;22.33;;
568;SDS011;269;48.884;9.192;2023-05-23T07:59:10;22.60;;;20.70;;
568;SDS011;269;48.884;9.192;2023-05-23T08:01:39;23.33;;;21.53;;
568;SDS011;269;48.884;9.192;2023-05-23T08:04:06;23.60;;;21.60;;
568;SDS011;269;48.884;9.192;2023-05-23T08:06:33;22.80;;;20.83;;
568;SDS011;269;48.884;9.192;2023-05-23T08:09:02;24.53;;;22.63;;
568;SDS011;269;48.884;9.192;2023-05-23T08:11:29;23.87;;;22.07;;
568;SDS011;269;48.884;9.192;2023-05-23T08:13:56;24.57;;;22.77;;
568;SDS011;269;48.884;9.192;2023-05-23T08:16:24;22.57;;;20.77;;
568;SDS011;269;48.884;9.192;2023-05-23T08:18:53;23.73;;;21.83;;
568;SDS011;269;48.884;9.192;2023-05-23T08:21:20;24.20;;;22.27;;
568;SDS011;269;48.884;9.192;2023-05-23T08:23:48;21.63;;;19.93;;
568;SDS011;269;48.884;9.192;2023-05-23T08:26:15;22.37;;;20.70;;
568;SDS011;269;48.884;9.192;2023-05-23T08:28:42;22.23;;;20.33;;
568;SDS011;269;48.884;9.192;2023-05-23T08:31:09;21.70;;;20.00;;
568;SDS011;269;48.884;9.192;2023-05-23T08:33:36;22.40;;;20.50;;
568;SDS011;269;48.884;9.192;2023-05-23T08:36:05;22.10;;;20.30;;
568;SDS011;269;48.884;9.192;2023-05-23T08:38:32;20.13;;;18.53;;
568;SDS011;269;48.884;9.192;2023-05-23T08:41:00;18.50;;;17.07;;
568;SDS011;269;48.884;9.192;2023-05-23T08:43:27;20.10;;;18.50;;
568;SDS011;269;48.884;9.192;2023-05-23T08:45:54;18.80;;;17.30;;
568;SDS011;269;48.884;9.192;2023-05-23T08:48:22;19.00;;;17.40;;
568;SDS011;269;48.884;9.192;2023-05-23T08:50:52;19.23;;;17.63;;
568;SDS011;269;48.884;9.192;2023-05-23T08:53:20;19.40;;;17.80;;
568;SDS011;269;48.884;9.192;2023-05-23T08:55:50;18.87;;;17.27;;
568;SDS011;269;48.884;9.192;2023-05-23T08:58:20;19.43;;;17.83;;
568;SDS011;269;48.884;9.192;2023-05-23T09:00:49;18.17;;;16.77;;
568;SDS011;269;48.884;9.192;2023-05-23T09:03:18;16.40;;;15.07;;
568;SDS011;269;48.884;9.192;2023-05-23T09:05:45;17.80;;;16.40;;
568;SDS011;269;48.884;9.192;2023-05-23T09:08:13;16.70;;;15.37;;
568;SDS011;269;48.884;9.192;2023-05-23T09:10:42;16.70;;;15.50;;
568;SDS011;269;48.884;9.192;2023-05-23T09:13:09;16.57;;;15.10;;
568;SDS011;269;48.884;9.192;2023-05-23T09:15:36;16.63;;;15.23;;
568;SDS011;269;48.884;9.192;2023-05-23T09:18:03;17.07;;;15.77;;
568;SDS011;269;48.884;9.192;2023-05-23T09:20:31;16.63;;;15.37;;
568;SDS011;269;48.884;9.192;2023-05-23T09:22:58;15.77;;;14.57;;
568;SDS011;269;48.884;9.192;2023-05-23T09:25:25;17.57;;;15.93;;
568;SDS011;269;48.884;9.192;2023-05-23T09:27:54;16.70;;;15.30;;
568;SDS011;269;48.884;9.192;2023-05-23T09:30:24;17.80;;;16.30;;
568;SDS011;269;48.884;9.192;2023-05-23T09:32:57;19.20;;;17.40;;
568;SDS011;269;48.884;9.192;2023-05-23T09:35:27;18.10;;;16.60;;
568;SDS011;269;48.884;9.192;2023-05-23T09:37:55;18.37;;;16.77;;
568;SDS011;269;48.884;9.192;2023-05-23T09:40:28;17.73;;;16.30;;
568;SDS011;269;48.884;9.192;2023-05-23T09:43:02;17.90;;;16.50;;
568;SDS011;269;48.884;9.192;2023-05-23T09:45:32;16.37;;;15.03;;
568;SDS011;269;48.884;9.192;2023-05-23T09:48:00;17.40;;;16.00;;
568;SDS011;269;48.884;9.192;2023-05-23T09:50:29;15.10;;;14.00;;
568;SDS011;269;48.884;9.192;2023-05-23T09:52:58;15.57;;;14.27;;
568;SDS011;269;48.884;9.192;2023-05-23T09:55:26;17.70;;;16.20;;
568;SDS011;269;48.884;9.192;2023-05-23T09:57:53;15.80;;;14.40;;
568;SDS011;269;48.884;9.192;2023-05-23T10:00:23;15.40;;;14.30;;
568;SDS011;269;48.884;9.192;2023-05-23T10:02:57;15.40;;;14.20;;
568;SDS011;269;48.884;9.192;2023-05-23T10:05:32;15.90;;;14.70;;
568;SDS011;269;48.884;9.192;2023-05-23T10:08:04;13.80;;;12.60;;
568;SDS011;269;48.884;9.192;2023-05-23T10:13:39;15.70;;;14.50;;
568;SDS011;269;48.884;9.192;2023-05-23T10:16:11;14.77;;;13.67;;
568;SDS011;269;48.884;9.192;2023-05-23T10:18:43;13.80;;;12.80;;
568;SDS011;269;48.884;9.192;2023-05-23T10:21:15;13.00;;;12.10;;
568;SDS011;269;48.884;9.192;2023-05-23T10:23:46;14.70;;;13.60;;
568;SDS011;269;48.884;9.192;2023-05-23T10:26:14;13.07;;;12.07;;
568;SDS011;269;48.884;9.192;2023-05-23T10:28:42;12.80;;;11.80;;
568;SDS011;269;48.884;9.192;2023-05-23T10:31:13;11.30;;;10.37;;
568;SDS011;269;48.884;9.192;2023-05-23T10:33:41;12.23;;;11.33;;
568;SDS011;269;48.884;9.192;2023-05-23T10:36:17;10.97;;;10.20;;
568;SDS011;269;48.884;9.192;2023-05-23T10:38:48;11.73;;;10.83;;
568;SDS011;269;48.884;9.192;2023-05-23T10:41:22;11.50;;;10.60;;
568;SDS011;269;48.884;9.192;2023-05-23T10:43:54;11.57;;;10.67;;
568;SDS011;269;48.884;9.192;2023-05-23T10:49:18;12.30;;;11.30;;
568;SDS011;269;48.884;9.192;2023-05-23T10:51:47;11.30;;;10.40;;
568;SDS011;269;48.884;9.192;2023-05-23T10:54:17;9.90;;;9.20;;
568;SDS011;269;48.884;9.192;2023-05-23T10:56:45;9.80;;;9.07;;
568;SDS011;269;48.884;9.192;2023-05-23T10:59:19;10.23;;;9.53;;
568;SDS011;269;48.884;9.192;2023-05-23T11:01:50;9.33;;;8.73;;
568;SDS011;269;48.884;9.192;2023-05-23T11:04:24;10.07;;;9.37;;
568;SDS011;269;48.884;9.192;2023-05-23T11:06:52;10.50;;;9.70;;
568;SDS011;269;48.884;9.192;2023-05-23T11:09:20;11.00;;;10.20;;
568;SDS011;269;48.884;9.192;2023-05-23T11:11:53;10.47;;;9.30;;
568;SDS011;269;48.884;9.192;2023-05-23T11:14:30;10.50;;;9.40;;
568;SDS011;269;48.884;9.192;2023-05-23T11:17:17;8.50;;;7.70;;
568;SDS011;269;48.884;9.192;2023-05-23T11:19:55;8.23;;;7.70;;
568;SDS011;269;48.884;9.192;2023-05-23T11:22:28;8.83;;;8.17;;
568;SDS011;269;48.884;9.192;2023-05-23T11:24:56;9.00;;;8.30;;
568;SDS011;269;48.884;9.192;2023-05-23T11:27:27;9.50;;;8.80;;
568;SDS011;269;48.884;9.192;2023-05-23T11:29:56;9.47;;;8.87;;
568;SDS011;269;48.884;9.192;2023-05-23T11:32:28;11.03;;;10.03;;
568;SDS011;269;48.884;9.192;2023-05-23T11:34:57;11.03;;;10.23;;
568;SDS011;269;48.884;9.192;2023-05-23T11:37:26;9.73;;;9.03;;
568;SDS011;269;48.884;9.192;2023-05-23T11:39:53;11.57;;;10.77;;
568;SDS011;269;48.884;9.192;2023-05-23T11:42:21;10.73;;;9.83;;
568;SDS011;269;48.884;9.192;2023-05-23T11:44:48;9.60;;;8.90;;
568;SDS011;269;48.884;9.192;2023-05-23T11:47:16;10.67;;;9.87;;
568;SDS011;269;48.884;9.192;2023-05-23T11:49:45;11.13;;;10.43;;
568;SDS011;269;48.884;9.192;2023-05-23T11:52:12;9.40;;;8.70;;
568;SDS011;269;48.884;9.192;2023-05-23T11:54:40;9.50;;;8.80;;
568;SDS011;269;48.884;9.192;2023-05-23T11:57:08;9.13;;;8.33;;
568;SDS011;269;48.884;9.192;2023-05-23T11:59:35;10.13;;;9.33;;
568;SDS011;269;48.884;9.192;2023-05-23T12:02:04;10.27;;;9.47;;
568;SDS011;269;48.884;9.192;2023-05-23T12:04:33;9.77;;;9.07;;
568;SDS011;269;48.884;9.192;2023-05-23T12:07:04;9.20;;;8.50;;
568;SDS011;269;48.884;9.192;2023-05-23T12:09:40;9.87;;;9.20;;
568;SDS011;269;48.884;9.192;2023-05-23T12:12:07;10.00;;;9.20;;
568;SDS011;269;48.884;9.192;2023-05-23T12:14:35;9.03;;;8.40;;
568;SDS011;269;48.884;9.192;2023-05-23T12:17:08;7.20;;;6.73;;
568;SDS011;269;48.884;9.192;2023-05-23T12:19:37;7.10;;;6.60;;
568;SDS011;269;48.884;9.192;2023-05-23T12:22:06;10.37;;;8.13;;
568;SDS011;269;48.884;9.192;2023-05-23T12:24:33;9.50;;;8.80;;
568;SDS011;269;48.884;9.192;2023-05-23T12:27:01;9.73;;;9.03;;
568;SDS011;269;48.884;9.192;2023-05-23T12:29:30;8.67;;;8.10;;
568;SDS011;269;48.884;9.192;2023-05-23T12:31:58;8.67;;;7.97;;
568;SDS011;269;48.884;9.192;2023-05-23T12:34:26;8.73;;;7.97;;
568;SDS011;269;48.884;9.192;2023-05-23T12:36:53;7.90;;;7.20;;
568;SDS011;269;48.884;9.192;2023-05-23T12:39:24;7.90;;;7.30;;
568;SDS011;269;48.884;9.192;2023-05-23T12:41:53;7.77;;;7.27;;
568;SDS011;269;48.884;9.192;2023-05-23T12:44:22;7.83;;;7.13;;
568;SDS011;269;48.884;9.192;2023-05-23T12:46:55;7.30;;;6.80;;
568;SDS011;269;48.884;9.192;2023-05-23T12:49:22;7.50;;;7.00;;
568;SDS011;269;48.884;9.192;2023-05-23T12:51:50;7.80;;;7.30;;
568;SDS011;269;48.884;9.192;2023-05-23T12:54:17;7.10;;;6.43;;
568;SDS011;269;48.884;9.192;2023-05-23T12:56:46;7.07;;;6.57;;
568;SDS011;269;48.884;9.192;2023-05-23T12:59:15;7.20;;;6.60;;
568;SDS011;269;48.884;9.192;2023-05-23T13:01:42;6.50;;;6.10;;
568;SDS011;269;48.884;9.192;2023-05-23T13:04:10;7.97;;;7.10;;
568;SDS011;269;48.884;9.192;2023-05-23T13:07:07;6.30;;;5.70;;
568;SDS011;269;48.884;9.192;2023-05-23T13:10:04;6.27;;;5.77;;
568;SDS011;269;48.884;9.192;2023-05-23T18:13:34;3.70;;;3.40;;
568;SDS011;269;48.884;9.192;2023-05-23T18:16:01;3.80;;;3.33;;
568;SDS011;269;48.884;9.192;2023-05-23T18:18:28;3.43;;;3.13;;
568;SDS011;269;48.884;9.192;2023-05-23T18:20:55;3.60;;;3.30;;
568;SDS011;269;48.884;9.192;2023-05-23T18:23:22;3.60;;;3.30;;
568;SDS011;269;48.884;9.192;2023-05-23T18:25:49;2.90;;;2.70;;
568;SDS011;269;48.884;9.192;2023-05-23T18:28:16;3.50;;;3.20;;
568;SDS011;269;48.884;9.192;2023-05-23T18:30:45;3.13;;;2.93;;
568;SDS011;269;48.884;9.192;2023-05-23T18:33:12;2.90;;;2.70;;
568;SDS011;269;48.884;9.192;2023-05-23T18:35:39;2.90;;;2.70;;
568;SDS011;269;48.884;9.192;2023-05-23T18:38:06;2.90;;;2.70;;
568;SDS011;269;48.884;9.192;2023-05-23T18:40:33;2.77;;;2.57;;
568;SDS011;269;48.884;9.192;2023-05-23T18:43:00;3.07;;;2.77;;
568;SDS011;269;48.884;9.192;2023-05-23T18:45:27;2.87;;;2.67;;
568;SDS011;269;48.884;9.192;2023-05-23T18:47:56;4.13;;;2.40;;
568;SDS011;269;48.884;9.192;2023-05-23T18:50:24;3.00;;;2.77;;
568;SDS011;269;48.884;9.192;2023-05-23T18:52:51;3.17;;;2.87;;
568;SDS011;269;48.884;9.192;2023-05-23T18:55:18;2.77;;;2.57;;
568;SDS011;269;48.884;9.192;2023-05-23T18:57:46;3.00;;;2.80;;
568;SDS011;269;48.884;9.192;2023-05-23T19:00:13;2.77;;;2.57;;
568;SDS011;269;48.884;9.192;2023-05-23T19:02:40;4.77;;;2.90;;
568;SDS011;269;48.884;9.192;2023-05-23T19:05:10;4.10;;;2.80;;
568;SDS011;269;48.884;9.192;2023-05-23T19:07:38;2.73;;;2.50;;
568;SDS011;269;48.884;9.192;2023-05-23T19:10:05;3.03;;;2.83;;
568;SDS011;269;48.884;9.192;2023-05-23T19:12:33;3.30;;;3.10;;
568;SDS011;269;48.884;9.192;2023-05-23T19:15:00;3.30;;;3.10;;
568;SDS011;269;48.884;9.192;2023-05-23T19:17:28;2.97;;;2.77;;
568;SDS011;269;48.884;9.192;2023-05-23T19:19:55;3.60;;;3.30;;
568;SDS011;269;48.884;9.192;2023-05-23T19:22:24;4.20;;;3.33;;
568;SDS011;269;48.884;9.192;2023-05-23T19:24:51;3.13;;;2.93;;
568;SDS011;269;48.884;9.192;2023-05-23T19:27:18;3.20;;;3.00;;
568;SDS011;269;48.884;9.192;2023-05-23T19:29:46;3.70;;;3.40;;
568;SDS011;269;48.884;9.192;2023-05-23T19:32:13;4.60;;;3.40;;
568;SDS011;269;48.884;9.192;2023-05-23T19:34:41;3.03;;;2.83;;
568;SDS011;269;48.884;9.192;2023-05-23T19:37:08;3.80;;;3.50;;
568;SDS011;269;48.884;9.192;2023-05-23T19:39:37;2.93;;;2.73;;
568;SDS011;269;48.884;9.192;2023-05-23T19:42:10;3.53;;;3.30;;
568;SDS011;269;48.884;9.192;2023-05-23T19:44:37;3.00;;;2.80;;
568;SDS011;269;48.884;9.192;2023-05-23T19:47:04;3.67;;;3.37;;
568;SDS011;269;48.884;9.192;2023-05-23T19:49:32;3.30;;;3.00;;
568;SDS011;269;48.884;9.192;2023-05-23T19:51:59;3.67;;;3.47;;
568;SDS011;269;48.884;9.192;2023-05-23T19:54:25;3.97;;;3.47;;
568;SDS011;269;48.884;9.192;2023-05-23T19:56:54;3.50;;;3.20;;
568;SDS011;269;48.884;9.192;2023-05-23T19:59:21;3.47;;;3.17;;
568;SDS011;269;48.884;9.192;2023-05-23T20:01:48;3.70;;;3.43;;
568;SDS011;269;48.884;9.192;2023-05-23T20:04:15;3.77;;;3.47;;
568;SDS011;269;48.884;9.192;2023-05-23T20:06:42;3.80;;;3.50;;
568;SDS011;269;48.884;9.192;2023-05-23T20:09:09;3.33;;;3.13;;
568;SDS011;269;48.884;9.192;2023-05-23T20:11:36;3.93;;;3.63;;
568;SDS011;269;48.884;9.192;2023-05-23T20:14:05;4.20;;;3.90;;
568;SDS011;269;48.884;9.192;2023-05-23T20:16:32;4.17;;;3.80;;
568;SDS011;269;48.884;9.192;2023-05-23T20:18:59;3.60;;;3.40;;
568;SDS011;269;48.884;9.192;2023-05-23T20:21:26;4.17;;;3.87;;
568;SDS011;269;48.884;9.192;2023-05-23T20:23:53;4.30;;;4.00;;
568;SDS011;269;48.884;9.192;2023-05-23T20:26:20;4.23;;;3.83;;
568;SDS011;269;48.884;9.192;2023-05-23T20:28:47;4.20;;;3.90;;
568;SDS011;269;48.884;9.192;2023-05-23T20:31:15;4.40;;;4.00;;
568;SDS011;269;48.884;9.192;2023-05-23T20:33:43;4.73;;;4.10;;
568;SDS011;269;48.884;9.192;2023-05-23T20:36:10;4.10;;;3.80;;